createdAt,value
2023-01-26T10:47:17.131Z,49.05
2023-01-26T10:49:45.212Z,22.13
2023-01-26T10:52:17.413Z,21.45
2023-01-26T10:54:45.488Z,26.52
2023-01-26T10:57:22.041Z,18.98
2023-01-26T10:59:51.462Z,18.23
2023-01-26T11:02:25.217Z,17.00
2023-01-26T11:05:16.861Z,19.23
2023-01-26T11:07:45.356Z,18.95
2023-01-26T11:10:20.839Z,20.65
2023-01-26T11:12:49.045Z,21.17
2023-01-26T11:15:18.623Z,16.08
2023-01-26T11:17:52.091Z,15.38
2023-01-26T11:20:29.324Z,15.30
2023-01-26T11:22:59.737Z,16.92
2023-01-26T11:25:29.261Z,16.17
2023-01-26T11:28:05.615Z,16.20
2023-01-26T11:30:57.428Z,14.82
2023-01-26T11:33:30.441Z,18.85
2023-01-26T11:36:01.094Z,13.95
2023-01-26T11:38:36.821Z,14.07
2023-01-26T11:41:11.884Z,16.00
2023-01-26T11:43:52.699Z,16.13
2023-01-26T11:46:25.518Z,16.90
2023-01-26T11:49:01.763Z,17.67
2023-01-26T11:51:34.040Z,11.23
2023-01-26T11:54:12.659Z,12.25
2023-01-26T11:56:45.130Z,10.32
2023-01-26T11:59:15.364Z,11.35
2023-01-26T12:01:45.049Z,10.65
2023-01-26T12:04:17.202Z,11.93
2023-01-26T12:06:46.837Z,14.15
2023-01-26T12:09:18.988Z,11.77
2023-01-26T12:11:50.382Z,10.95
2023-01-26T12:14:23.023Z,14.10
2023-01-26T12:16:58.065Z,12.50
2023-01-26T12:19:40.145Z,11.63
2023-01-26T12:22:13.662Z,9.70
2023-01-26T12:25:16.189Z,10.40
2023-01-26T12:27:34.650Z,9.07
2023-01-26T12:30:04.910Z,10.65
2023-01-26T12:32:34.396Z,11.73
2023-01-26T12:35:03.733Z,10.30
2023-01-26T12:37:41.079Z,10.63
2023-01-26T12:40:15.735Z,7.90
2023-01-26T12:42:47.254Z,9.68
2023-01-26T12:45:18.778Z,8.77
2023-01-26T12:47:49.274Z,11.40
2023-01-26T12:50:23.031Z,13.13
2023-01-26T12:52:54.428Z,13.57
2023-01-26T12:55:24.746Z,15.82
2023-01-26T12:57:55.126Z,12.23
2023-01-26T13:00:24.609Z,12.18
2023-01-26T13:02:54.953Z,16.13
2023-01-26T13:05:28.636Z,11.90
2023-01-26T13:07:56.507Z,15.73
2023-01-26T13:10:28.721Z,16.42
2023-01-26T13:12:58.300Z,19.55
2023-01-26T13:15:27.542Z,16.88
2023-01-26T13:17:56.638Z,10.30
2023-01-26T13:20:30.123Z,12.35
2023-01-26T13:22:57.871Z,15.77
2023-01-26T13:25:32.438Z,12.57
2023-01-26T13:28:01.165Z,15.23
2023-01-26T13:30:46.416Z,13.32
2023-01-26T13:33:20.735Z,12.98
2023-01-26T13:35:51.161Z,12.52
2023-01-26T13:38:26.059Z,10.52
2023-01-26T13:40:54.989Z,13.52
2023-01-26T13:43:28.029Z,15.23
2023-01-26T13:46:09.706Z,12.80
2023-01-26T13:48:41.043Z,13.85
2023-01-26T13:51:12.365Z,16.70
2023-01-26T13:53:41.420Z,17.42
2023-01-26T13:56:21.123Z,16.63
2023-01-26T14:02:12.201Z,12.48
2023-01-26T14:04:51.516Z,15.00
2023-01-26T14:07:21.467Z,17.20
2023-01-26T14:09:51.026Z,20.38
2023-01-26T14:12:22.007Z,12.40
2023-01-26T14:14:51.198Z,13.60
2023-01-26T14:17:26.487Z,12.20
2023-01-26T14:19:54.295Z,13.07
2023-01-26T14:22:23.414Z,12.48
2023-01-26T14:28:23.375Z,13.10
2023-01-26T14:30:52.309Z,16.02
2023-01-26T14:33:20.117Z,18.48
2023-01-26T14:35:56.354Z,12.88
2023-01-26T14:38:28.101Z,14.07
2023-01-26T14:40:56.723Z,17.05
2023-01-26T14:43:25.084Z,12.63
2023-01-26T14:45:55.867Z,14.35
2023-01-26T14:48:27.632Z,14.15
2023-01-26T14:50:55.438Z,17.95
2023-01-26T14:53:24.128Z,17.92
2023-01-26T14:55:53.765Z,11.57
2023-01-26T14:58:23.248Z,15.18
2023-01-26T15:00:51.879Z,20.13
2023-01-26T15:03:23.604Z,17.58
2023-01-26T15:06:04.440Z,14.45
2023-01-26T15:08:35.881Z,14.50
2023-01-26T15:11:22.763Z,15.30
2023-01-26T15:13:55.527Z,16.58
2023-01-26T15:18:59.190Z,14.95
2023-01-26T15:21:32.680Z,19.23
2023-01-26T15:24:01.086Z,20.08
2023-01-26T15:26:30.991Z,20.05
2023-01-26T15:28:59.945Z,18.33
2023-01-26T15:31:30.387Z,17.27
2023-01-26T15:34:01.409Z,15.63
2023-01-26T15:36:34.234Z,17.75
2023-01-26T15:41:33.891Z,15.27
2023-01-26T15:44:01.696Z,19.00
2023-01-26T15:46:32.477Z,22.05
2023-01-26T15:49:00.331Z,14.77
2023-01-26T15:51:34.094Z,118.28
2023-01-26T15:54:01.804Z,28.88
2023-01-26T15:56:29.509Z,25.92
2023-01-26T15:58:58.615Z,21.85
2023-01-26T16:01:26.340Z,19.33
2023-01-26T16:03:54.118Z,19.35
2023-01-26T16:06:26.009Z,21.45
2023-01-26T16:08:54.226Z,14.87
2023-01-26T16:11:22.414Z,16.30
2023-01-26T16:14:02.519Z,25.75
2023-01-26T16:16:33.904Z,20.38
2023-01-26T16:19:01.829Z,17.80
2023-01-26T16:21:31.785Z,18.67
2023-01-26T16:23:59.822Z,20.23
2023-01-26T16:26:28.237Z,22.42
2023-01-26T16:28:56.282Z,17.00
2023-01-26T16:31:25.626Z,19.42
2023-01-26T16:33:54.794Z,20.55
2023-01-26T16:36:22.622Z,19.98
2023-01-26T16:38:50.976Z,24.73
2023-01-26T16:41:23.010Z,21.38
2023-01-26T16:43:51.166Z,22.90
2023-01-26T16:46:18.879Z,21.10
2023-01-26T16:48:46.908Z,21.25
2023-01-26T16:51:18.690Z,21.48
2023-01-26T16:53:46.583Z,22.40
2023-01-26T16:56:14.979Z,20.42
2023-01-26T16:58:42.698Z,21.08
2023-01-26T17:01:16.940Z,20.35
2023-01-26T17:03:44.833Z,21.02
2023-01-26T17:06:13.637Z,17.52
2023-01-26T17:08:42.806Z,24.00
2023-01-26T17:11:13.984Z,27.67
2023-01-26T17:13:41.882Z,21.02
2023-01-26T17:16:13.295Z,21.90
2023-01-26T17:18:41.297Z,21.58
2023-01-26T17:21:09.309Z,22.15
2023-01-26T17:23:41.719Z,21.27
2023-01-26T17:26:11.608Z,22.65
2023-01-26T17:28:39.387Z,28.38
2023-01-26T17:31:10.786Z,39.85
2023-01-26T17:33:38.957Z,32.67
2023-01-26T17:36:07.660Z,25.92
2023-01-26T17:38:35.403Z,24.95
2023-01-26T17:41:03.586Z,21.65
2023-01-26T17:43:32.875Z,22.15
2023-01-26T17:46:07.799Z,25.80
2023-01-26T17:48:37.516Z,29.48
2023-01-26T17:51:08.594Z,29.30
2023-01-26T17:53:39.433Z,23.92
2023-01-26T17:56:08.625Z,33.13
2023-01-26T17:58:38.738Z,34.40
2023-01-26T18:01:07.378Z,33.58
2023-01-26T18:03:35.977Z,29.75
2023-01-26T18:06:03.747Z,35.28
2023-01-26T18:08:31.705Z,26.17
2023-01-26T18:10:59.919Z,29.30
2023-01-26T18:13:28.008Z,30.13
2023-01-26T18:15:57.249Z,28.50
2023-01-26T18:18:25.944Z,28.27
2023-01-26T18:20:53.990Z,34.25
2023-01-26T18:23:22.507Z,37.95
2023-01-26T18:25:50.676Z,25.58
2023-01-26T18:28:18.449Z,32.22
2023-01-26T18:30:46.187Z,33.22
2023-01-26T18:33:15.709Z,33.78
2023-01-26T18:35:43.446Z,32.70
2023-01-26T18:38:11.310Z,35.45
2023-01-26T18:40:40.132Z,37.05
2023-01-26T18:43:07.950Z,34.78
2023-01-26T18:45:35.795Z,28.48
2023-01-26T18:48:03.585Z,34.63
2023-01-26T18:50:32.786Z,31.33
2023-01-26T18:53:00.567Z,35.22
2023-01-26T18:55:28.359Z,37.30
2023-01-26T18:57:56.143Z,37.28
2023-01-26T19:00:24.089Z,29.52
2023-01-26T19:02:52.315Z,36.88
2023-01-26T19:05:20.034Z,35.15
2023-01-26T19:07:49.124Z,40.33
2023-01-26T19:10:17.302Z,31.70
2023-01-26T19:12:45.282Z,34.22
2023-01-26T19:15:13.249Z,35.03
2023-01-26T19:17:44.950Z,36.03
2023-01-26T19:20:13.223Z,38.63
2023-01-26T19:22:41.210Z,39.05
2023-01-26T19:25:10.977Z,41.47
2023-01-26T19:27:40.612Z,38.05
2023-01-26T19:30:12.049Z,38.63
2023-01-26T19:33:00.523Z,29.55
2023-01-26T19:35:28.250Z,37.38
2023-01-26T19:37:55.962Z,34.80
2023-01-26T19:40:27.016Z,39.30
2023-01-26T19:42:54.929Z,37.13
2023-01-26T19:45:22.770Z,36.95
2023-01-26T19:47:50.885Z,45.17
2023-01-26T19:50:18.810Z,40.50
2023-01-26T19:52:46.769Z,34.08
2023-01-26T19:55:14.768Z,36.95
2023-01-26T19:57:43.997Z,41.63
2023-01-26T20:00:12.298Z,42.25
2023-01-26T20:02:40.065Z,39.22
2023-01-26T20:05:08.301Z,45.72
2023-01-26T20:07:37.911Z,44.25
2023-01-26T20:10:06.260Z,45.42
2023-01-26T20:12:34.378Z,45.33
2023-01-26T20:15:03.883Z,40.35
2023-01-26T20:17:31.643Z,36.10
2023-01-26T20:19:59.383Z,33.92
2023-01-26T20:22:33.436Z,36.03
2023-01-26T20:25:01.476Z,39.78
2023-01-26T20:27:30.246Z,45.15
2023-01-26T20:29:58.324Z,33.88
2023-01-26T20:32:27.678Z,39.97
2023-01-26T20:34:55.485Z,37.15
2023-01-26T20:37:23.285Z,42.00
2023-01-26T20:39:51.511Z,33.67
2023-01-26T20:42:19.519Z,38.17
2023-01-26T20:44:47.327Z,32.72
2023-01-26T20:47:15.055Z,40.80
2023-01-26T20:49:44.561Z,32.65
2023-01-26T20:52:12.545Z,34.45
2023-01-26T20:54:40.282Z,36.00
2023-01-26T20:57:08.058Z,36.47
2023-01-26T20:59:35.827Z,33.22
2023-01-26T21:02:06.456Z,37.47
2023-01-26T21:04:34.188Z,40.90
2023-01-26T21:07:03.466Z,37.97
2023-01-26T21:09:31.215Z,38.63
2023-01-26T21:11:58.929Z,34.67
2023-01-26T21:14:26.746Z,44.55
2023-01-26T21:16:54.505Z,38.50
2023-01-26T21:19:22.834Z,34.58
2023-01-26T21:21:50.687Z,36.78
2023-01-26T21:24:19.839Z,32.47
2023-01-26T21:26:48.069Z,34.45
2023-01-26T21:29:17.131Z,37.22
